createdAt,value
2019-01-21T00:00:31.984Z,34.67
2019-01-21T00:05:29.003Z,30.60
2019-01-21T00:10:25.935Z,30.60
2019-01-21T00:15:23.343Z,27.83
2019-01-21T00:20:20.394Z,26.40
2019-01-21T00:25:17.310Z,28.33
2019-01-21T00:30:14.246Z,29.67
2019-01-21T00:35:11.146Z,30.00
2019-01-21T00:40:16.261Z,27.23
2019-01-21T00:45:13.662Z,26.43
2019-01-21T00:50:12.538Z,28.33
2019-01-21T00:55:12.029Z,27.47
2019-01-21T01:00:19.667Z,28.23
2019-01-21T01:05:17.796Z,31.17
2019-01-21T01:10:15.026Z,29.90
2019-01-21T01:15:13.745Z,27.70
2019-01-21T01:20:14.698Z,28.77
2019-01-21T01:25:11.698Z,28.53
2019-01-21T01:30:12.573Z,30.37
2019-01-21T01:35:11.191Z,28.10
2019-01-21T01:40:12.273Z,24.20
2019-01-21T01:45:14.447Z,23.47
2019-01-21T01:50:11.652Z,24.57
2019-01-21T01:55:10.001Z,26.13
2019-01-21T02:00:14.414Z,25.07
2019-01-21T02:05:11.816Z,24.67
2019-01-21T02:10:11.516Z,26.77
2019-01-21T02:15:11.923Z,24.20
2019-01-21T02:20:16.097Z,22.67
2019-01-21T02:25:13.154Z,23.73
2019-01-21T02:30:24.045Z,29.60
2019-01-21T02:35:26.395Z,25.40
2019-01-21T02:40:40.951Z,24.47
2019-01-21T02:46:06.346Z,26.40
2019-01-21T02:51:44.088Z,28.57
2019-01-21T02:56:52.345Z,25.53
2019-01-21T03:02:17.578Z,24.50
2019-01-21T03:07:44.353Z,27.17
2019-01-21T03:12:50.586Z,27.50
2019-01-21T03:18:15.376Z,27.87
2019-01-21T03:23:42.009Z,31.40
2019-01-21T03:28:59.125Z,44.20
2019-01-21T03:34:13.515Z,47.80
2019-01-21T03:39:52.572Z,55.43
2019-01-21T03:45:33.281Z,51.10
2019-01-21T03:51:10.927Z,53.77
2019-01-21T03:56:10.155Z,61.37
2019-01-21T04:01:29.391Z,57.03
2019-01-21T04:06:40.787Z,85.53
2019-01-21T04:11:45.818Z,72.87
2019-01-21T04:17:39.441Z,60.40
2019-01-21T04:22:46.795Z,62.43
2019-01-21T04:28:01.192Z,62.80
2019-01-21T04:33:35.833Z,49.50
2019-01-21T04:39:01.109Z,48.10
2019-01-21T04:44:14.998Z,51.47
2019-01-21T04:49:22.859Z,51.77
2019-01-21T04:54:55.964Z,45.70
2019-01-21T05:00:19.626Z,42.30
2019-01-21T05:05:51.818Z,38.23
2019-01-21T05:11:15.724Z,36.37
2019-01-21T05:16:20.983Z,35.53
2019-01-21T05:21:47.905Z,30.67
2019-01-21T05:27:19.508Z,35.07
2019-01-21T05:32:27.783Z,32.83
2019-01-21T05:37:45.062Z,38.33
2019-01-21T05:43:06.061Z,28.47
2019-01-21T05:48:49.046Z,31.43
2019-01-21T05:54:24.261Z,25.90
2019-01-21T05:59:38.781Z,28.93
2019-01-21T06:05:04.982Z,31.67
2019-01-21T06:10:16.243Z,26.93
2019-01-21T06:15:37.288Z,28.17
2019-01-21T06:21:00.555Z,30.10
2019-01-21T06:26:12.616Z,29.23
2019-01-21T06:31:29.559Z,28.07
2019-01-21T06:36:31.967Z,26.57
2019-01-21T06:42:17.599Z,28.87
2019-01-21T06:48:04.373Z,27.50
2019-01-21T06:53:20.889Z,26.30
2019-01-21T06:58:52.612Z,30.57
2019-01-21T07:04:28.726Z,26.23
2019-01-21T07:09:31.101Z,30.40
2019-01-21T07:14:51.520Z,29.87
2019-01-21T07:20:14.975Z,27.63
2019-01-21T07:25:28.860Z,27.63
2019-01-21T07:30:43.327Z,30.00
2019-01-21T07:36:28.533Z,28.20
2019-01-21T07:42:06.169Z,31.43
2019-01-21T07:47:53.175Z,30.07
2019-01-21T07:53:28.219Z,29.47
2019-01-21T07:58:51.674Z,28.50
2019-01-21T08:04:36.863Z,28.97
2019-01-21T08:10:06.359Z,28.97
2019-01-21T08:15:26.423Z,33.30
2019-01-21T08:20:43.523Z,27.20
2019-01-21T08:26:07.006Z,31.87
2019-01-21T08:31:16.106Z,32.30
2019-01-21T08:36:27.491Z,29.87
2019-01-21T08:41:53.675Z,27.67
2019-01-21T08:47:14.381Z,31.97
2019-01-21T08:52:37.152Z,33.03
2019-01-21T08:58:08.469Z,26.60
2019-01-21T09:03:27.447Z,30.43
2019-01-21T09:08:54.180Z,35.37
2019-01-21T09:14:05.371Z,33.00
2019-01-21T09:19:19.579Z,38.67
2019-01-21T09:24:37.837Z,30.63
2019-01-21T09:29:49.238Z,30.73
2019-01-21T09:35:20.733Z,27.73
2019-01-21T09:40:28.977Z,29.93
2019-01-21T09:45:40.238Z,25.93
2019-01-21T09:50:37.643Z,30.30
2019-01-21T09:55:37.596Z,31.17
2019-01-21T10:00:34.516Z,39.57
2019-01-21T10:05:34.145Z,34.67
2019-01-21T10:11:03.591Z,32.80
2019-01-21T10:16:32.208Z,27.43
2019-01-21T10:21:43.229Z,24.80
2019-01-21T10:27:23.929Z,25.53
2019-01-21T10:33:20.743Z,28.63
2019-01-21T10:38:47.538Z,29.43
2019-01-21T10:43:58.666Z,28.17
2019-01-21T10:49:03.794Z,27.30
2019-01-21T10:54:14.638Z,21.83
2019-01-21T10:59:23.083Z,29.70
2019-01-21T11:04:53.195Z,21.90
2019-01-21T11:10:01.585Z,17.97
2019-01-21T11:15:22.224Z,21.73
2019-01-21T11:20:58.205Z,21.63
2019-01-21T11:26:30.922Z,19.00
2019-01-21T11:32:02.946Z,20.47
2019-01-21T11:37:40.495Z,20.70
2019-01-21T11:43:01.103Z,22.97
2019-01-21T11:48:12.443Z,20.67
2019-01-21T11:53:33.126Z,22.50
2019-01-21T11:58:49.967Z,29.10
2019-01-21T12:04:06.854Z,22.43
2019-01-21T12:09:24.637Z,19.70
2019-01-21T12:14:48.140Z,18.87
2019-01-21T12:20:08.012Z,19.83
2019-01-21T12:25:28.129Z,17.60
2019-01-21T12:30:51.681Z,19.17
2019-01-21T12:36:05.712Z,20.70
2019-01-21T12:41:10.862Z,20.37
2019-01-21T12:46:17.287Z,17.93
2019-01-21T12:51:31.835Z,23.53
2019-01-21T12:56:52.127Z,20.30
2019-01-21T13:02:00.528Z,19.43
2019-01-21T13:07:24.300Z,25.73
2019-01-21T13:12:46.332Z,16.13
2019-01-21T13:17:51.208Z,19.20
2019-01-21T13:23:05.911Z,27.03
2019-01-21T13:28:23.762Z,24.27
2019-01-21T13:33:56.041Z,19.27
2019-01-21T13:39:10.474Z,23.00
2019-01-21T13:44:18.780Z,24.57
2019-01-21T13:49:43.718Z,20.10
2019-01-21T13:54:57.707Z,21.57
2019-01-21T14:00:20.850Z,21.07
2019-01-21T14:05:47.631Z,16.17
2019-01-21T14:11:01.986Z,28.63
2019-01-21T14:16:39.540Z,21.07
2019-01-21T14:22:09.185Z,20.57
2019-01-21T14:27:37.417Z,19.27
2019-01-21T14:33:10.150Z,25.00
2019-01-21T14:38:34.625Z,25.53
2019-01-21T14:43:59.531Z,96.90
2019-01-21T14:49:16.807Z,48.67
2019-01-21T14:54:22.419Z,32.80
2019-01-21T14:59:59.719Z,31.97
2019-01-21T15:05:21.575Z,31.80
2019-01-21T15:10:29.959Z,47.63
2019-01-21T15:15:59.849Z,39.43
2019-01-21T15:21:08.201Z,37.07
2019-01-21T15:26:19.025Z,31.30
2019-01-21T15:31:48.919Z,36.80
2019-01-21T15:37:18.677Z,35.70
2019-01-21T15:42:29.576Z,36.47
2019-01-21T15:47:44.122Z,29.87
2019-01-21T15:53:01.424Z,29.10
2019-01-21T15:58:07.576Z,24.80
2019-01-21T16:03:26.676Z,23.17
2019-01-21T16:08:29.022Z,24.20
2019-01-21T16:13:37.130Z,29.20
2019-01-21T16:18:42.425Z,28.93
2019-01-21T16:24:20.178Z,24.70
2019-01-21T16:29:36.552Z,24.67
2019-01-21T16:34:47.930Z,27.97
2019-01-21T16:40:20.233Z,26.23
2019-01-21T16:45:17.630Z,24.33
2019-01-21T16:50:14.844Z,22.33
2019-01-21T16:55:11.883Z,24.87
2019-01-21T17:00:13.146Z,26.70
2019-01-21T17:05:11.646Z,25.90
2019-01-21T17:10:10.713Z,25.73
2019-01-21T17:15:11.593Z,27.57
2019-01-21T17:20:16.374Z,31.37
2019-01-21T17:25:13.780Z,40.57
2019-01-21T17:30:15.421Z,42.67
2019-01-21T17:35:13.843Z,36.67
2019-01-21T17:40:15.811Z,36.17
2019-01-21T17:45:17.756Z,39.90
2019-01-21T17:50:17.005Z,37.43
2019-01-21T17:55:14.684Z,43.67
2019-01-21T18:00:18.464Z,43.43
2019-01-21T18:05:16.466Z,46.97
2019-01-21T18:10:16.821Z,47.97
2019-01-21T18:15:15.038Z,47.10
2019-01-21T18:20:18.819Z,45.27
2019-01-21T18:25:16.255Z,49.10
2019-01-21T18:30:17.834Z,49.77
2019-01-21T18:35:15.004Z,48.43
2019-01-21T18:40:15.595Z,64.10
2019-01-21T18:45:18.199Z,107.20
2019-01-21T18:50:15.371Z,150.93
2019-01-21T18:55:12.329Z,165.00
2019-01-21T19:00:19.877Z,161.70
2019-01-21T19:05:32.271Z,178.37
2019-01-21T19:10:29.210Z,173.50
2019-01-21T19:15:29.325Z,153.77
2019-01-21T19:20:26.246Z,125.17
2019-01-21T19:25:39.460Z,117.43
2019-01-21T19:30:36.357Z,121.30
2019-01-21T19:35:34.126Z,98.00
2019-01-21T19:40:32.211Z,84.40
2019-01-21T19:45:29.351Z,71.70
2019-01-21T19:50:26.467Z,67.70
2019-01-21T19:55:38.923Z,59.80
2019-01-21T20:00:36.696Z,61.17
2019-01-21T20:05:33.647Z,51.70
2019-01-21T20:10:30.559Z,53.17
2019-01-21T20:15:27.518Z,44.57
2019-01-21T20:20:35.087Z,45.70
2019-01-21T20:25:32.010Z,56.40
2019-01-21T20:30:29.001Z,52.83
2019-01-21T20:35:26.029Z,41.67
2019-01-21T20:40:27.946Z,44.43
2019-01-21T20:45:24.859Z,50.83
2019-01-21T20:50:25.464Z,54.30
2019-01-21T20:55:22.809Z,62.67
2019-01-21T21:00:25.567Z,51.33
2019-01-21T21:05:23.084Z,51.47
2019-01-21T21:10:20.101Z,49.87
2019-01-21T21:15:21.451Z,46.13
2019-01-21T21:20:18.141Z,41.83
2019-01-21T21:25:18.481Z,41.77
2019-01-21T21:30:20.094Z,41.30
2019-01-21T21:35:16.719Z,49.13
2019-01-21T21:40:16.599Z,46.33
2019-01-21T21:45:16.172Z,44.13
2019-01-21T21:50:16.776Z,43.63
2019-01-21T21:55:13.634Z,42.37
2019-01-21T22:00:23.107Z,38.27
2019-01-21T22:05:20.311Z,32.93
2019-01-21T22:10:24.227Z,29.80
2019-01-21T22:15:22.983Z,30.33
2019-01-21T22:20:26.337Z,33.63
2019-01-21T22:25:23.211Z,31.33
2019-01-21T22:30:23.558Z,28.23
2019-01-21T22:35:20.564Z,26.20
2019-01-21T22:40:20.228Z,32.43
2019-01-21T22:45:18.636Z,31.27
2019-01-21T22:50:16.901Z,35.53
2019-01-21T22:55:15.130Z,31.03
2019-01-21T23:00:34.680Z,27.97
2019-01-21T23:05:31.601Z,28.80
2019-01-21T23:10:29.547Z,24.77
2019-01-21T23:15:26.437Z,27.90
2019-01-21T23:20:23.611Z,28.53
2019-01-21T23:25:20.515Z,27.10
2019-01-21T23:30:20.516Z,30.47
2019-01-21T23:35:18.203Z,28.23
2019-01-21T23:40:15.470Z,30.73
2019-01-21T23:45:12.381Z,31.03
2019-01-21T23:50:15.603Z,34.87
2019-01-21T23:55:13.011Z,40.93
